sensor_id;sensor_type;location;lat;lon;timestamp;P1;durP1;ratioP1;P2;durP2;ratioP2
4292;SDS011;2160;51.172;6.808;2022-10-18T04:00:47;2.97;;;2.80;;
4292;SDS011;2160;51.172;6.808;2022-10-18T04:03:14;1.17;;;1.17;;
4292;SDS011;2160;51.172;6.808;2022-10-18T04:05:41;1.40;;;1.40;;
4292;SDS011;2160;51.172;6.808;2022-10-18T04:08:08;1.30;;;1.30;;
4292;SDS011;2160;51.172;6.808;2022-10-18T04:10:36;0.90;;;0.90;;
4292;SDS011;2160;51.172;6.808;2022-10-18T04:13:03;2.20;;;1.77;;
4292;SDS011;2160;51.172;6.808;2022-10-18T04:15:30;2.50;;;2.30;;
4292;SDS011;2160;51.172;6.808;2022-10-18T04:18:01;1.47;;;1.47;;
4292;SDS011;2160;51.172;6.808;2022-10-18T04:20:28;5.40;;;3.00;;
4292;SDS011;2160;51.172;6.808;2022-10-18T04:22:55;2.90;;;2.80;;
4292;SDS011;2160;51.172;6.808;2022-10-18T04:25:22;1.57;;;1.57;;
4292;SDS011;2160;51.172;6.808;2022-10-18T04:27:50;1.33;;;1.33;;
4292;SDS011;2160;51.172;6.808;2022-10-18T04:30:17;1.53;;;1.43;;
4292;SDS011;2160;51.172;6.808;2022-10-18T04:32:44;2.03;;;1.93;;
4292;SDS011;2160;51.172;6.808;2022-10-18T04:35:12;0.80;;;0.80;;
4292;SDS011;2160;51.172;6.808;2022-10-18T04:37:39;1.73;;;1.63;;
4292;SDS011;2160;51.172;6.808;2022-10-18T04:40:06;2.47;;;2.27;;
4292;SDS011;2160;51.172;6.808;2022-10-18T04:42:34;3.20;;;2.90;;
4292;SDS011;2160;51.172;6.808;2022-10-18T04:45:01;2.73;;;2.63;;
4292;SDS011;2160;51.172;6.808;2022-10-18T04:47:28;1.80;;;1.70;;
4292;SDS011;2160;51.172;6.808;2022-10-18T04:49:55;2.60;;;2.50;;
4292;SDS011;2160;51.172;6.808;2022-10-18T04:52:23;1.53;;;1.43;;
4292;SDS011;2160;51.172;6.808;2022-10-18T04:54:50;5.60;;;2.83;;
4292;SDS011;2160;51.172;6.808;2022-10-18T04:57:17;1.60;;;1.60;;
4292;SDS011;2160;51.172;6.808;2022-10-18T04:59:44;1.20;;;1.20;;
4292;SDS011;2160;51.172;6.808;2022-10-18T05:02:11;1.53;;;1.43;;
4292;SDS011;2160;51.172;6.808;2022-10-18T05:04:37;1.30;;;1.30;;
4292;SDS011;2160;51.172;6.808;2022-10-18T05:07:04;1.27;;;1.27;;
4292;SDS011;2160;51.172;6.808;2022-10-18T05:09:33;2.60;;;2.40;;
4292;SDS011;2160;51.172;6.808;2022-10-18T05:11:59;1.97;;;1.87;;
4292;SDS011;2160;51.172;6.808;2022-10-18T05:14:26;1.63;;;1.53;;
4292;SDS011;2160;51.172;6.808;2022-10-18T05:16:53;2.10;;;2.00;;
4292;SDS011;2160;51.172;6.808;2022-10-18T05:19:20;1.33;;;1.33;;
4292;SDS011;2160;51.172;6.808;2022-10-18T05:21:47;1.20;;;1.20;;
4292;SDS011;2160;51.172;6.808;2022-10-18T05:24:14;1.00;;;1.00;;
4292;SDS011;2160;51.172;6.808;2022-10-18T05:26:42;2.07;;;1.97;;
4292;SDS011;2160;51.172;6.808;2022-10-18T05:29:09;1.48;;;1.38;;
4292;SDS011;2160;51.172;6.808;2022-10-18T05:31:36;2.13;;;2.03;;
4292;SDS011;2160;51.172;6.808;2022-10-18T05:34:03;2.23;;;2.03;;
4292;SDS011;2160;51.172;6.808;2022-10-18T05:39:12;2.40;;;1.87;;
4292;SDS011;2160;51.172;6.808;2022-10-18T05:41:38;1.40;;;1.40;;
4292;SDS011;2160;51.172;6.808;2022-10-18T05:44:07;1.63;;;1.53;;
4292;SDS011;2160;51.172;6.808;2022-10-18T05:46:34;2.53;;;2.33;;
4292;SDS011;2160;51.172;6.808;2022-10-18T05:49:01;1.80;;;1.70;;
4292;SDS011;2160;51.172;6.808;2022-10-18T05:51:28;1.80;;;1.70;;
4292;SDS011;2160;51.172;6.808;2022-10-18T05:53:55;4.50;;;4.10;;
4292;SDS011;2160;51.172;6.808;2022-10-18T05:59:05;3.07;;;2.97;;
4292;SDS011;2160;51.172;6.808;2022-10-18T06:01:36;2.17;;;2.07;;
4292;SDS011;2160;51.172;6.808;2022-10-18T06:04:03;3.07;;;2.83;;
4292;SDS011;2160;51.172;6.808;2022-10-18T06:06:30;3.03;;;2.83;;
4292;SDS011;2160;51.172;6.808;2022-10-18T06:08:57;4.70;;;3.70;;
4292;SDS011;2160;51.172;6.808;2022-10-18T06:11:24;3.20;;;2.90;;
4292;SDS011;2160;51.172;6.808;2022-10-18T06:13:51;1.77;;;1.67;;
4292;SDS011;2160;51.172;6.808;2022-10-18T06:16:20;2.23;;;1.47;;
4292;SDS011;2160;51.172;6.808;2022-10-18T06:18:47;4.30;;;3.90;;
4292;SDS011;2160;51.172;6.808;2022-10-18T06:21:15;2.60;;;1.80;;
4292;SDS011;2160;51.172;6.808;2022-10-18T06:23:43;1.77;;;1.67;;
4292;SDS011;2160;51.172;6.808;2022-10-18T06:26:13;2.37;;;2.27;;
4292;SDS011;2160;51.172;6.808;2022-10-18T06:28:40;4.93;;;2.67;;
4292;SDS011;2160;51.172;6.808;2022-10-18T06:31:07;4.20;;;4.00;;
4292;SDS011;2160;51.172;6.808;2022-10-18T06:33:35;2.27;;;2.17;;
4292;SDS011;2160;51.172;6.808;2022-10-18T06:36:03;2.37;;;2.13;;
4292;SDS011;2160;51.172;6.808;2022-10-18T06:38:31;2.67;;;2.50;;
4292;SDS011;2160;51.172;6.808;2022-10-18T06:40:59;2.50;;;2.30;;
4292;SDS011;2160;51.172;6.808;2022-10-18T06:43:26;2.67;;;2.57;;
4292;SDS011;2160;51.172;6.808;2022-10-18T06:45:53;2.97;;;2.40;;
4292;SDS011;2160;51.172;6.808;2022-10-18T06:48:20;2.50;;;2.40;;
4292;SDS011;2160;51.172;6.808;2022-10-18T06:50:53;3.97;;;3.77;;
4292;SDS011;2160;51.172;6.808;2022-10-18T06:53:21;1.20;;;1.20;;
4292;SDS011;2160;51.172;6.808;2022-10-18T06:55:48;2.03;;;1.93;;
4292;SDS011;2160;51.172;6.808;2022-10-18T06:58:15;2.10;;;2.00;;
4292;SDS011;2160;51.172;6.808;2022-10-18T07:00:42;1.63;;;1.57;;
4292;SDS011;2160;51.172;6.808;2022-10-18T07:03:09;1.40;;;1.33;;
4292;SDS011;2160;51.172;6.808;2022-10-18T07:05:36;4.33;;;3.93;;
4292;SDS011;2160;51.172;6.808;2022-10-18T07:08:04;2.70;;;2.60;;
4292;SDS011;2160;51.172;6.808;2022-10-18T07:10:31;4.37;;;4.00;;
4292;SDS011;2160;51.172;6.808;2022-10-18T07:12:58;2.43;;;2.33;;
4292;SDS011;2160;51.172;6.808;2022-10-18T07:15:25;2.90;;;2.70;;
4292;SDS011;2160;51.172;6.808;2022-10-18T07:17:52;8.03;;;5.53;;
4292;SDS011;2160;51.172;6.808;2022-10-18T07:20:19;3.03;;;2.83;;
4292;SDS011;2160;51.172;6.808;2022-10-18T07:22:46;2.73;;;2.63;;
4292;SDS011;2160;51.172;6.808;2022-10-18T07:25:14;5.90;;;2.73;;
4292;SDS011;2160;51.172;6.808;2022-10-18T07:27:41;2.17;;;2.07;;
4292;SDS011;2160;51.172;6.808;2022-10-18T07:30:09;2.23;;;2.13;;
4292;SDS011;2160;51.172;6.808;2022-10-18T07:32:36;4.53;;;4.23;;
4292;SDS011;2160;51.172;6.808;2022-10-18T07:35:03;4.80;;;3.00;;
4292;SDS011;2160;51.172;6.808;2022-10-18T07:37:31;6.07;;;3.53;;
4292;SDS011;2160;51.172;6.808;2022-10-18T07:39:58;2.77;;;1.57;;
4292;SDS011;2160;51.172;6.808;2022-10-18T07:42:26;5.40;;;4.87;;
4292;SDS011;2160;51.172;6.808;2022-10-18T07:44:53;5.10;;;4.13;;
4292;SDS011;2160;51.172;6.808;2022-10-18T07:47:20;2.00;;;1.90;;
4292;SDS011;2160;51.172;6.808;2022-10-18T07:49:47;3.93;;;3.73;;
4292;SDS011;2160;51.172;6.808;2022-10-18T07:52:14;4.40;;;2.13;;
4292;SDS011;2160;51.172;6.808;2022-10-18T07:54:40;2.77;;;1.70;;
4292;SDS011;2160;51.172;6.808;2022-10-18T07:57:07;5.17;;;4.70;;
4292;SDS011;2160;51.172;6.808;2022-10-18T07:59:36;7.03;;;4.20;;
4292;SDS011;2160;51.172;6.808;2022-10-18T08:02:03;3.30;;;3.10;;
4292;SDS011;2160;51.172;6.808;2022-10-18T08:04:30;3.93;;;3.37;;
4292;SDS011;2160;51.172;6.808;2022-10-18T08:06:57;3.50;;;2.70;;
4292;SDS011;2160;51.172;6.808;2022-10-18T08:09:23;9.00;;;5.57;;
4292;SDS011;2160;51.172;6.808;2022-10-18T08:11:50;5.03;;;3.00;;
4292;SDS011;2160;51.172;6.808;2022-10-18T08:14:17;1.77;;;1.67;;
4292;SDS011;2160;51.172;6.808;2022-10-18T08:16:46;3.20;;;3.00;;
4292;SDS011;2160;51.172;6.808;2022-10-18T08:19:13;4.20;;;3.93;;
4292;SDS011;2160;51.172;6.808;2022-10-18T08:21:39;2.27;;;2.17;;
4292;SDS011;2160;51.172;6.808;2022-10-18T08:24:06;2.73;;;2.53;;
4292;SDS011;2160;51.172;6.808;2022-10-18T08:26:33;3.83;;;3.37;;
4292;SDS011;2160;51.172;6.808;2022-10-18T08:29:00;2.10;;;2.00;;
4292;SDS011;2160;51.172;6.808;2022-10-18T08:31:27;4.80;;;4.40;;
4292;SDS011;2160;51.172;6.808;2022-10-18T08:33:55;3.00;;;2.90;;
4292;SDS011;2160;51.172;6.808;2022-10-18T08:36:23;6.93;;;6.27;;
4292;SDS011;2160;51.172;6.808;2022-10-18T08:38:50;3.43;;;2.73;;
4292;SDS011;2160;51.172;6.808;2022-10-18T08:41:21;4.13;;;3.83;;
4292;SDS011;2160;51.172;6.808;2022-10-18T08:44:04;7.27;;;6.83;;
4292;SDS011;2160;51.172;6.808;2022-10-18T08:46:37;7.03;;;4.13;;
4292;SDS011;2160;51.172;6.808;2022-10-18T08:49:14;10.27;;;4.27;;
4292;SDS011;2160;51.172;6.808;2022-10-18T08:51:47;9.93;;;3.27;;
4292;SDS011;2160;51.172;6.808;2022-10-18T08:54:17;7.73;;;7.10;;
4292;SDS011;2160;51.172;6.808;2022-10-18T08:56:54;1.83;;;1.80;;
4292;SDS011;2160;51.172;6.808;2022-10-18T08:59:24;3.70;;;3.07;;
4292;SDS011;2160;51.172;6.808;2022-10-18T09:01:53;4.67;;;2.93;;
4292;SDS011;2160;51.172;6.808;2022-10-18T09:04:33;3.97;;;3.67;;
4292;SDS011;2160;51.172;6.808;2022-10-18T09:07:13;5.60;;;5.37;;
4292;SDS011;2160;51.172;6.808;2022-10-18T09:10:04;3.00;;;2.80;;
4292;SDS011;2160;51.172;6.808;2022-10-18T09:12:45;6.40;;;5.90;;
4292;SDS011;2160;51.172;6.808;2022-10-18T09:15:28;5.17;;;4.73;;
4292;SDS011;2160;51.172;6.808;2022-10-18T09:18:06;7.83;;;7.10;;
4292;SDS011;2160;51.172;6.808;2022-10-18T09:20:51;5.27;;;4.90;;
4292;SDS011;2160;51.172;6.808;2022-10-18T09:23:23;7.47;;;6.87;;
4292;SDS011;2160;51.172;6.808;2022-10-18T09:26:05;6.57;;;6.17;;
4292;SDS011;2160;51.172;6.808;2022-10-18T09:28:38;5.03;;;4.73;;
4292;SDS011;2160;51.172;6.808;2022-10-18T09:31:14;4.17;;;3.97;;
4292;SDS011;2160;51.172;6.808;2022-10-18T09:33:47;9.63;;;9.10;;
4292;SDS011;2160;51.172;6.808;2022-10-18T09:36:21;6.27;;;5.90;;
4292;SDS011;2160;51.172;6.808;2022-10-18T09:38:51;4.00;;;3.80;;
4292;SDS011;2160;51.172;6.808;2022-10-18T09:41:22;16.73;;;7.13;;
4292;SDS011;2160;51.172;6.808;2022-10-18T09:43:53;7.07;;;6.57;;
4292;SDS011;2160;51.172;6.808;2022-10-18T09:46:25;4.13;;;3.93;;
4292;SDS011;2160;51.172;6.808;2022-10-18T09:48:56;4.30;;;3.90;;
4292;SDS011;2160;51.172;6.808;2022-10-18T09:51:29;7.23;;;6.53;;
4292;SDS011;2160;51.172;6.808;2022-10-18T09:54:10;5.00;;;4.67;;
4292;SDS011;2160;51.172;6.808;2022-10-18T09:56:46;4.00;;;3.70;;
4292;SDS011;2160;51.172;6.808;2022-10-18T10:02:05;6.30;;;5.77;;
4292;SDS011;2160;51.172;6.808;2022-10-18T10:04:34;7.53;;;6.80;;
4292;SDS011;2160;51.172;6.808;2022-10-18T10:07:03;12.70;;;5.20;;
4292;SDS011;2160;51.172;6.808;2022-10-18T10:09:36;12.57;;;6.10;;
4292;SDS011;2160;51.172;6.808;2022-10-18T10:12:07;4.60;;;4.17;;
4292;SDS011;2160;51.172;6.808;2022-10-18T10:14:54;6.33;;;5.97;;
4292;SDS011;2160;51.172;6.808;2022-10-18T10:17:33;3.40;;;3.30;;
4292;SDS011;2160;51.172;6.808;2022-10-18T10:20:01;6.53;;;6.03;;
4292;SDS011;2160;51.172;6.808;2022-10-18T10:22:33;5.60;;;5.20;;
4292;SDS011;2160;51.172;6.808;2022-10-18T10:25:03;6.00;;;5.43;;
4292;SDS011;2160;51.172;6.808;2022-10-18T10:27:32;9.30;;;5.83;;
4292;SDS011;2160;51.172;6.808;2022-10-18T10:30:20;10.33;;;9.47;;
4292;SDS011;2160;51.172;6.808;2022-10-18T10:32:52;7.73;;;6.20;;
4292;SDS011;2160;51.172;6.808;2022-10-18T10:35:27;6.53;;;6.03;;
4292;SDS011;2160;51.172;6.808;2022-10-18T10:37:57;11.17;;;10.00;;
4292;SDS011;2160;51.172;6.808;2022-10-18T10:40:24;7.87;;;5.83;;
4292;SDS011;2160;51.172;6.808;2022-10-18T10:42:59;8.90;;;8.37;;
4292;SDS011;2160;51.172;6.808;2022-10-18T10:45:30;11.63;;;9.50;;
4292;SDS011;2160;51.172;6.808;2022-10-18T10:48:06;8.10;;;7.67;;
4292;SDS011;2160;51.172;6.808;2022-10-18T10:50:49;13.87;;;12.50;;
4292;SDS011;2160;51.172;6.808;2022-10-18T10:53:36;10.77;;;9.47;;
4292;SDS011;2160;51.172;6.808;2022-10-18T10:56:11;6.70;;;6.00;;
4292;SDS011;2160;51.172;6.808;2022-10-18T10:58:42;5.33;;;4.90;;
4292;SDS011;2160;51.172;6.808;2022-10-18T11:01:16;8.20;;;7.40;;
4292;SDS011;2160;51.172;6.808;2022-10-18T11:03:46;15.33;;;8.43;;
4292;SDS011;2160;51.172;6.808;2022-10-18T11:06:34;5.20;;;4.80;;
4292;SDS011;2160;51.172;6.808;2022-10-18T11:09:11;7.33;;;6.57;;
4292;SDS011;2160;51.172;6.808;2022-10-18T11:12:05;15.23;;;9.00;;
4292;SDS011;2160;51.172;6.808;2022-10-18T11:14:40;7.47;;;6.77;;
4292;SDS011;2160;51.172;6.808;2022-10-18T11:17:13;4.43;;;4.03;;
4292;SDS011;2160;51.172;6.808;2022-10-18T11:22:42;21.47;;;7.97;;
4292;SDS011;2160;51.172;6.808;2022-10-18T11:25:17;5.60;;;5.03;;
4292;SDS011;2160;51.172;6.808;2022-10-18T11:27:47;10.27;;;9.43;;
4292;SDS011;2160;51.172;6.808;2022-10-18T11:30:29;5.70;;;5.30;;
4292;SDS011;2160;51.172;6.808;2022-10-18T11:33:12;3.57;;;3.37;;
4292;SDS011;2160;51.172;6.808;2022-10-18T11:35:47;13.33;;;3.37;;
4292;SDS011;2160;51.172;6.808;2022-10-18T11:38:20;7.00;;;6.10;;
4292;SDS011;2160;51.172;6.808;2022-10-18T11:41:03;3.90;;;3.67;;
4292;SDS011;2160;51.172;6.808;2022-10-18T11:43:42;5.27;;;4.90;;
4292;SDS011;2160;51.172;6.808;2022-10-18T11:46:18;21.43;;;4.77;;
4292;SDS011;2160;51.172;6.808;2022-10-18T11:49:03;12.27;;;7.43;;
4292;SDS011;2160;51.172;6.808;2022-10-18T11:51:44;4.83;;;3.60;;
4292;SDS011;2160;51.172;6.808;2022-10-18T11:54:26;1.60;;;1.50;;
4292;SDS011;2160;51.172;6.808;2022-10-18T11:57:09;8.00;;;5.87;;
4292;SDS011;2160;51.172;6.808;2022-10-18T11:59:48;2.90;;;2.80;;
4292;SDS011;2160;51.172;6.808;2022-10-18T12:02:42;14.83;;;4.50;;
4292;SDS011;2160;51.172;6.808;2022-10-18T12:05:21;4.70;;;2.47;;
4292;SDS011;2160;51.172;6.808;2022-10-18T12:07:50;23.90;;;6.00;;
4292;SDS011;2160;51.172;6.808;2022-10-18T12:10:21;4.13;;;3.70;;
4292;SDS011;2160;51.172;6.808;2022-10-18T12:12:52;4.47;;;4.07;;
4292;SDS011;2160;51.172;6.808;2022-10-18T12:15:23;1.70;;;1.60;;
4292;SDS011;2160;51.172;6.808;2022-10-18T12:17:53;3.43;;;3.13;;
4292;SDS011;2160;51.172;6.808;2022-10-18T12:20:22;5.30;;;3.90;;
4292;SDS011;2160;51.172;6.808;2022-10-18T12:22:55;3.03;;;2.93;;
4292;SDS011;2160;51.172;6.808;2022-10-18T12:25:26;6.00;;;4.73;;
4292;SDS011;2160;51.172;6.808;2022-10-18T12:27:56;2.10;;;2.00;;
4292;SDS011;2160;51.172;6.808;2022-10-18T12:30:29;3.43;;;3.23;;
4292;SDS011;2160;51.172;6.808;2022-10-18T12:33:03;1.93;;;1.83;;
4292;SDS011;2160;51.172;6.808;2022-10-18T12:35:37;16.03;;;6.50;;
4292;SDS011;2160;51.172;6.808;2022-10-18T12:38:16;3.90;;;3.60;;
4292;SDS011;2160;51.172;6.808;2022-10-18T12:40:47;2.73;;;2.53;;
4292;SDS011;2160;51.172;6.808;2022-10-18T12:43:20;1.67;;;1.57;;
4292;SDS011;2160;51.172;6.808;2022-10-18T12:45:52;7.97;;;7.07;;
4292;SDS011;2160;51.172;6.808;2022-10-18T12:48:27;4.30;;;4.00;;
4292;SDS011;2160;51.172;6.808;2022-10-18T12:50:56;4.33;;;3.93;;
4292;SDS011;2160;51.172;6.808;2022-10-18T12:53:25;1.80;;;1.70;;
4292;SDS011;2160;51.172;6.808;2022-10-18T12:55:54;2.57;;;2.47;;
4292;SDS011;2160;51.172;6.808;2022-10-18T12:58:42;2.63;;;2.43;;
4292;SDS011;2160;51.172;6.808;2022-10-18T13:01:09;6.53;;;4.13;;
4292;SDS011;2160;51.172;6.808;2022-10-18T13:09:28;6.60;;;2.37;;
4292;SDS011;2160;51.172;6.808;2022-10-18T13:11:57;4.07;;;3.77;;
4292;SDS011;2160;51.172;6.808;2022-10-18T13:14:56;4.43;;;4.10;;
4292;SDS011;2160;51.172;6.808;2022-10-18T13:17:28;5.40;;;4.97;;
4292;SDS011;2160;51.172;6.808;2022-10-18T13:20:06;2.70;;;2.50;;
4292;SDS011;2160;51.172;6.808;2022-10-18T13:22:49;34.20;;;3.10;;
4292;SDS011;2160;51.172;6.808;2022-10-18T13:25:28;6.90;;;3.30;;
4292;SDS011;2160;51.172;6.808;2022-10-18T13:28:01;3.77;;;3.57;;
4292;SDS011;2160;51.172;6.808;2022-10-18T13:30:45;2.17;;;2.07;;
4292;SDS011;2160;51.172;6.808;2022-10-18T13:33:30;3.03;;;2.17;;
4292;SDS011;2160;51.172;6.808;2022-10-18T13:35:59;1.93;;;1.83;;
4292;SDS011;2160;51.172;6.808;2022-10-18T13:38:41;3.03;;;2.83;;
4292;SDS011;2160;51.172;6.808;2022-10-18T13:41:13;5.07;;;2.97;;
4292;SDS011;2160;51.172;6.808;2022-10-18T13:56:10;1.00;;;1.00;;
4292;SDS011;2160;51.172;6.808;2022-10-18T13:58:45;2.17;;;2.07;;
4292;SDS011;2160;51.172;6.808;2022-10-18T14:01:26;2.30;;;1.47;;
4292;SDS011;2160;51.172;6.808;2022-10-18T14:07:04;1.83;;;1.50;;
4292;SDS011;2160;51.172;6.808;2022-10-18T14:09:34;1.07;;;1.07;;
4292;SDS011;2160;51.172;6.808;2022-10-18T14:12:13;2.00;;;1.83;;
4292;SDS011;2160;51.172;6.808;2022-10-18T14:14:47;2.07;;;1.97;;
4292;SDS011;2160;51.172;6.808;2022-10-18T14:17:22;3.53;;;3.17;;
4292;SDS011;2160;51.172;6.808;2022-10-18T14:19:55;1.73;;;1.63;;
4292;SDS011;2160;51.172;6.808;2022-10-18T14:22:28;2.10;;;2.00;;
4292;SDS011;2160;51.172;6.808;2022-10-18T14:25:01;2.03;;;1.93;;
4292;SDS011;2160;51.172;6.808;2022-10-18T14:27:28;1.40;;;1.37;;
4292;SDS011;2160;51.172;6.808;2022-10-18T14:30:07;1.70;;;1.60;;
4292;SDS011;2160;51.172;6.808;2022-10-18T14:32:41;2.90;;;2.60;;
4292;SDS011;2160;51.172;6.808;2022-10-18T14:35:17;4.00;;;2.70;;
4292;SDS011;2160;51.172;6.808;2022-10-18T14:37:45;1.43;;;1.43;;
4292;SDS011;2160;51.172;6.808;2022-10-18T14:40:32;2.20;;;2.10;;
4292;SDS011;2160;51.172;6.808;2022-10-18T14:43:05;1.50;;;0.93;;
4292;SDS011;2160;51.172;6.808;2022-10-18T14:45:37;2.50;;;2.37;;
4292;SDS011;2160;51.172;6.808;2022-10-18T14:48:05;3.07;;;2.20;;
4292;SDS011;2160;51.172;6.808;2022-10-18T14:50:33;2.20;;;2.10;;
4292;SDS011;2160;51.172;6.808;2022-10-18T14:53:03;21.00;;;1.87;;
4292;SDS011;2160;51.172;6.808;2022-10-18T14:55:32;1.37;;;1.37;;
4292;SDS011;2160;51.172;6.808;2022-10-18T14:58:00;3.47;;;3.17;;
4292;SDS011;2160;51.172;6.808;2022-10-18T15:00:28;1.33;;;1.23;;
4292;SDS011;2160;51.172;6.808;2022-10-18T15:03:01;5.03;;;3.43;;
4292;SDS011;2160;51.172;6.808;2022-10-18T15:05:30;2.50;;;2.30;;
4292;SDS011;2160;51.172;6.808;2022-10-18T15:07:57;1.67;;;1.57;;
4292;SDS011;2160;51.172;6.808;2022-10-18T15:10:25;3.97;;;3.57;;
4292;SDS011;2160;51.172;6.808;2022-10-18T15:12:56;4.83;;;1.70;;
4292;SDS011;2160;51.172;6.808;2022-10-18T15:15:25;0.80;;;0.80;;
4292;SDS011;2160;51.172;6.808;2022-10-18T15:17:54;4.33;;;2.20;;
4292;SDS011;2160;51.172;6.808;2022-10-18T15:20:24;1.30;;;1.30;;
4292;SDS011;2160;51.172;6.808;2022-10-18T15:22:52;1.27;;;1.27;;
4292;SDS011;2160;51.172;6.808;2022-10-18T15:25:41;29.33;;;1.97;;
4292;SDS011;2160;51.172;6.808;2022-10-18T15:28:15;1.03;;;1.03;;
4292;SDS011;2160;51.172;6.808;2022-10-18T15:30:52;2.40;;;2.20;;
4292;SDS011;2160;51.172;6.808;2022-10-18T15:33:22;0.90;;;0.90;;
4292;SDS011;2160;51.172;6.808;2022-10-18T15:35:50;2.53;;;2.00;;
4292;SDS011;2160;51.172;6.808;2022-10-18T15:38:23;1.43;;;1.43;;
4292;SDS011;2160;51.172;6.808;2022-10-18T15:40:53;2.50;;;2.30;;
4292;SDS011;2160;51.172;6.808;2022-10-18T15:43:32;1.27;;;1.20;;
4292;SDS011;2160;51.172;6.808;2022-10-18T15:46:04;1.20;;;1.20;;
4292;SDS011;2160;51.172;6.808;2022-10-18T15:48:32;1.20;;;1.20;;
4292;SDS011;2160;51.172;6.808;2022-10-18T15:51:02;1.63;;;1.53;;
4292;SDS011;2160;51.172;6.808;2022-10-18T15:53:31;1.03;;;0.93;;
4292;SDS011;2160;51.172;6.808;2022-10-18T15:59:19;1.30;;;1.27;;
4292;SDS011;2160;51.172;6.808;2022-10-18T16:01:48;0.93;;;0.93;;
4292;SDS011;2160;51.172;6.808;2022-10-18T16:04:17;3.07;;;2.17;;
4292;SDS011;2160;51.172;6.808;2022-10-18T16:06:48;1.67;;;1.57;;
4292;SDS011;2160;51.172;6.808;2022-10-18T16:09:15;1.00;;;1.00;;
4292;SDS011;2160;51.172;6.808;2022-10-18T16:11:45;1.40;;;1.30;;
4292;SDS011;2160;51.172;6.808;2022-10-18T16:14:14;1.30;;;1.30;;
4292;SDS011;2160;51.172;6.808;2022-10-18T16:16:41;2.20;;;2.10;;
4292;SDS011;2160;51.172;6.808;2022-10-18T16:19:08;2.50;;;1.63;;
4292;SDS011;2160;51.172;6.808;2022-10-18T16:21:38;1.27;;;1.27;;
4292;SDS011;2160;51.172;6.808;2022-10-18T16:24:05;0.80;;;0.80;;
4292;SDS011;2160;51.172;6.808;2022-10-18T16:26:33;0.80;;;0.80;;
4292;SDS011;2160;51.172;6.808;2022-10-18T16:29:02;4.83;;;2.17;;
4292;SDS011;2160;51.172;6.808;2022-10-18T16:31:29;1.27;;;1.27;;
4292;SDS011;2160;51.172;6.808;2022-10-18T16:33:58;2.70;;;2.50;;
4292;SDS011;2160;51.172;6.808;2022-10-18T16:36:27;1.30;;;1.30;;
4292;SDS011;2160;51.172;6.808;2022-10-18T16:38:55;1.73;;;1.40;;
4292;SDS011;2160;51.172;6.808;2022-10-18T16:41:24;1.10;;;1.10;;
4292;SDS011;2160;51.172;6.808;2022-10-18T16:43:52;1.40;;;1.37;;
4292;SDS011;2160;51.172;6.808;2022-10-18T16:46:20;1.40;;;1.30;;
4292;SDS011;2160;51.172;6.808;2022-10-18T16:48:49;1.00;;;1.00;;
4292;SDS011;2160;51.172;6.808;2022-10-18T16:51:16;3.43;;;1.83;;
4292;SDS011;2160;51.172;6.808;2022-10-18T16:53:43;1.00;;;1.00;;
4292;SDS011;2160;51.172;6.808;2022-10-18T16:56:11;0.87;;;0.87;;
4292;SDS011;2160;51.172;6.808;2022-10-18T16:58:40;1.13;;;1.07;;
4292;SDS011;2160;51.172;6.808;2022-10-18T17:01:09;1.60;;;1.50;;
4292;SDS011;2160;51.172;6.808;2022-10-18T17:03:38;1.53;;;1.43;;
4292;SDS011;2160;51.172;6.808;2022-10-18T17:06:05;0.90;;;0.90;;
4292;SDS011;2160;51.172;6.808;2022-10-18T17:08:38;0.90;;;0.90;;
4292;SDS011;2160;51.172;6.808;2022-10-18T17:11:05;1.33;;;1.33;;
4292;SDS011;2160;51.172;6.808;2022-10-18T17:13:32;3.53;;;2.60;;
4292;SDS011;2160;51.172;6.808;2022-10-18T17:15:59;1.10;;;1.10;;
4292;SDS011;2160;51.172;6.808;2022-10-18T17:18:28;2.07;;;1.87;;
4292;SDS011;2160;51.172;6.808;2022-10-18T17:20:57;1.77;;;1.67;;
4292;SDS011;2160;51.172;6.808;2022-10-18T17:23:27;1.43;;;1.43;;
4292;SDS011;2160;51.172;6.808;2022-10-18T17:25:54;1.50;;;1.50;;
4292;SDS011;2160;51.172;6.808;2022-10-18T17:28:21;1.63;;;1.53;;
4292;SDS011;2160;51.172;6.808;2022-10-18T17:30:48;0.97;;;0.97;;
4292;SDS011;2160;51.172;6.808;2022-10-18T17:33:14;1.20;;;1.20;;
4292;SDS011;2160;51.172;6.808;2022-10-18T17:35:41;1.13;;;1.13;;
4292;SDS011;2160;51.172;6.808;2022-10-18T17:38:11;2.90;;;1.63;;
4292;SDS011;2160;51.172;6.808;2022-10-18T17:40:38;3.17;;;3.00;;
4292;SDS011;2160;51.172;6.808;2022-10-18T17:43:06;0.90;;;0.90;;
4292;SDS011;2160;51.172;6.808;2022-10-18T17:45:34;1.47;;;1.37;;
4292;SDS011;2160;51.172;6.808;2022-10-18T17:48:02;0.80;;;0.80;;
4292;SDS011;2160;51.172;6.808;2022-10-18T17:50:29;1.00;;;1.00;;
4292;SDS011;2160;51.172;6.808;2022-10-18T17:52:55;1.30;;;1.30;;
4292;SDS011;2160;51.172;6.808;2022-10-18T17:55:24;1.20;;;1.20;;
4292;SDS011;2160;51.172;6.808;2022-10-18T17:57:51;1.67;;;1.67;;
4292;SDS011;2160;51.172;6.808;2022-10-18T18:00:18;1.43;;;1.43;;
4292;SDS011;2160;51.172;6.808;2022-10-18T18:02:45;8.37;;;2.30;;
4292;SDS011;2160;51.172;6.808;2022-10-18T18:05:12;1.70;;;1.63;;
4292;SDS011;2160;51.172;6.808;2022-10-18T18:07:39;1.17;;;1.17;;
4292;SDS011;2160;51.172;6.808;2022-10-18T18:10:06;1.10;;;1.10;;
4292;SDS011;2160;51.172;6.808;2022-10-18T18:12:34;1.40;;;1.30;;
4292;SDS011;2160;51.172;6.808;2022-10-18T18:15:01;1.27;;;1.17;;
4292;SDS011;2160;51.172;6.808;2022-10-18T18:17:29;3.53;;;3.00;;
4292;SDS011;2160;51.172;6.808;2022-10-18T18:19:55;1.60;;;1.50;;
4292;SDS011;2160;51.172;6.808;2022-10-18T18:22:22;8.03;;;1.97;;
4292;SDS011;2160;51.172;6.808;2022-10-18T18:24:49;2.13;;;1.53;;
4292;SDS011;2160;51.172;6.808;2022-10-18T18:27:16;1.90;;;1.80;;
4292;SDS011;2160;51.172;6.808;2022-10-18T18:29:44;2.03;;;1.93;;
4292;SDS011;2160;51.172;6.808;2022-10-18T18:32:12;0.90;;;0.90;;
4292;SDS011;2160;51.172;6.808;2022-10-18T18:34:39;1.70;;;1.60;;
4292;SDS011;2160;51.172;6.808;2022-10-18T18:37:06;1.50;;;1.40;;
4292;SDS011;2160;51.172;6.808;2022-10-18T18:39:34;1.57;;;1.47;;
4292;SDS011;2160;51.172;6.808;2022-10-18T18:42:03;2.10;;;1.90;;
4292;SDS011;2160;51.172;6.808;2022-10-18T18:44:31;1.93;;;1.83;;
4292;SDS011;2160;51.172;6.808;2022-10-18T18:46:59;3.73;;;3.13;;
4292;SDS011;2160;51.172;6.808;2022-10-18T18:49:26;1.17;;;1.17;;
4292;SDS011;2160;51.172;6.808;2022-10-18T18:51:55;2.13;;;2.03;;
4292;SDS011;2160;51.172;6.808;2022-10-18T18:54:22;1.50;;;1.47;;
4292;SDS011;2160;51.172;6.808;2022-10-18T18:56:49;3.83;;;2.30;;
4292;SDS011;2160;51.172;6.808;2022-10-18T18:59:16;3.53;;;2.67;;
4292;SDS011;2160;51.172;6.808;2022-10-18T19:01:44;1.37;;;1.27;;
4292;SDS011;2160;51.172;6.808;2022-10-18T19:04:12;1.30;;;1.30;;
4292;SDS011;2160;51.172;6.808;2022-10-18T19:06:40;1.87;;;1.77;;
4292;SDS011;2160;51.172;6.808;2022-10-18T19:09:09;1.70;;;1.60;;
4292;SDS011;2160;51.172;6.808;2022-10-18T19:11:43;1.77;;;1.77;;
4292;SDS011;2160;51.172;6.808;2022-10-18T19:14:11;1.20;;;1.20;;
4292;SDS011;2160;51.172;6.808;2022-10-18T19:16:39;1.33;;;1.33;;
4292;SDS011;2160;51.172;6.808;2022-10-18T19:19:11;1.03;;;1.03;;
4292;SDS011;2160;51.172;6.808;2022-10-18T19:21:42;2.30;;;2.20;;
4292;SDS011;2160;51.172;6.808;2022-10-18T19:24:09;2.83;;;1.83;;
4292;SDS011;2160;51.172;6.808;2022-10-18T19:26:38;7.03;;;4.83;;
4292;SDS011;2160;51.172;6.808;2022-10-18T19:29:10;4.53;;;2.57;;
4292;SDS011;2160;51.172;6.808;2022-10-18T19:31:38;2.47;;;2.37;;
4292;SDS011;2160;51.172;6.808;2022-10-18T19:34:06;1.10;;;1.10;;
4292;SDS011;2160;51.172;6.808;2022-10-18T19:36:36;1.20;;;1.20;;
4292;SDS011;2160;51.172;6.808;2022-10-18T19:39:04;2.03;;;1.93;;
4292;SDS011;2160;51.172;6.808;2022-10-18T19:41:32;1.13;;;1.13;;
4292;SDS011;2160;51.172;6.808;2022-10-18T19:44:00;1.83;;;1.77;;
4292;SDS011;2160;51.172;6.808;2022-10-18T19:46:27;2.70;;;2.53;;
4292;SDS011;2160;51.172;6.808;2022-10-18T19:48:54;3.00;;;2.80;;
4292;SDS011;2160;51.172;6.808;2022-10-18T19:51:21;4.60;;;4.20;;
4292;SDS011;2160;51.172;6.808;2022-10-18T19:53:49;3.13;;;2.93;;
4292;SDS011;2160;51.172;6.808;2022-10-18T19:56:16;3.90;;;3.27;;
4292;SDS011;2160;51.172;6.808;2022-10-18T19:58:45;1.60;;;1.60;;
4292;SDS011;2160;51.172;6.808;2022-10-18T20:01:13;1.30;;;1.30;;
4292;SDS011;2160;51.172;6.808;2022-10-18T20:03:41;2.30;;;2.20;;
4292;SDS011;2160;51.172;6.808;2022-10-18T20:06:09;1.70;;;1.60;;
4292;SDS011;2160;51.172;6.808;2022-10-18T20:08:36;2.40;;;2.30;;
4292;SDS011;2160;51.172;6.808;2022-10-18T20:11:06;2.07;;;1.97;;